sensor_id;sensor_type;location;lat;lon;timestamp;P1;durP1;ratioP1;P2;durP2;ratioP2
74892;SDS011;63446;56.272;43.922;2022-12-15T00:00:13;15.40;;;4.95;;
74892;SDS011;63446;56.272;43.922;2022-12-15T00:03:02;11.57;;;3.87;;
74892;SDS011;63446;56.272;43.922;2022-12-15T00:05:48;17.38;;;5.10;;
74892;SDS011;63446;56.272;43.922;2022-12-15T00:08:33;15.77;;;4.50;;
74892;SDS011;63446;56.272;43.922;2022-12-15T00:11:17;15.20;;;4.97;;
74892;SDS011;63446;56.272;43.922;2022-12-15T00:14:02;13.57;;;5.18;;
74892;SDS011;63446;56.272;43.922;2022-12-15T00:16:46;13.90;;;5.20;;
74892;SDS011;63446;56.272;43.922;2022-12-15T00:19:31;12.98;;;4.75;;
74892;SDS011;63446;56.272;43.922;2022-12-15T00:22:16;13.60;;;4.93;;
74892;SDS011;63446;56.272;43.922;2022-12-15T00:25:01;13.13;;;5.07;;
74892;SDS011;63446;56.272;43.922;2022-12-15T00:27:45;13.40;;;4.60;;
74892;SDS011;63446;56.272;43.922;2022-12-15T00:30:29;12.60;;;4.17;;
74892;SDS011;63446;56.272;43.922;2022-12-15T00:33:14;9.45;;;3.83;;
74892;SDS011;63446;56.272;43.922;2022-12-15T00:35:59;15.38;;;4.00;;
74892;SDS011;63446;56.272;43.922;2022-12-15T00:38:43;14.88;;;4.60;;
74892;SDS011;63446;56.272;43.922;2022-12-15T00:41:10;12.27;;;3.78;;
74892;SDS011;63446;56.272;43.922;2022-12-15T00:43:37;10.20;;;3.93;;
74892;SDS011;63446;56.272;43.922;2022-12-15T00:46:03;11.20;;;3.83;;
74892;SDS011;63446;56.272;43.922;2022-12-15T00:48:49;13.20;;;3.60;;
74892;SDS011;63446;56.272;43.922;2022-12-15T00:51:15;11.50;;;3.83;;
74892;SDS011;63446;56.272;43.922;2022-12-15T00:53:42;9.90;;;3.83;;
74892;SDS011;63446;56.272;43.922;2022-12-15T00:56:26;9.35;;;3.45;;
74892;SDS011;63446;56.272;43.922;2022-12-15T00:59:11;7.93;;;3.25;;
74892;SDS011;63446;56.272;43.922;2022-12-15T01:01:56;9.02;;;3.28;;
74892;SDS011;63446;56.272;43.922;2022-12-15T01:04:40;9.70;;;3.30;;
74892;SDS011;63446;56.272;43.922;2022-12-15T01:07:25;10.65;;;3.85;;
74892;SDS011;63446;56.272;43.922;2022-12-15T01:10:10;14.73;;;3.85;;
74892;SDS011;63446;56.272;43.922;2022-12-15T01:12:55;13.48;;;3.67;;
74892;SDS011;63446;56.272;43.922;2022-12-15T01:15:39;9.38;;;3.42;;
74892;SDS011;63446;56.272;43.922;2022-12-15T01:18:26;8.37;;;3.17;;
74892;SDS011;63446;56.272;43.922;2022-12-15T01:21:10;8.23;;;2.95;;
74892;SDS011;63446;56.272;43.922;2022-12-15T01:23:37;8.23;;;3.10;;
74892;SDS011;63446;56.272;43.922;2022-12-15T01:26:04;13.18;;;3.60;;
74892;SDS011;63446;56.272;43.922;2022-12-15T01:28:32;13.32;;;3.63;;
74892;SDS011;63446;56.272;43.922;2022-12-15T01:30:58;13.37;;;3.20;;
74892;SDS011;63446;56.272;43.922;2022-12-15T01:33:24;12.60;;;3.40;;
74892;SDS011;63446;56.272;43.922;2022-12-15T01:35:56;9.10;;;3.60;;
74892;SDS011;63446;56.272;43.922;2022-12-15T01:38:24;9.52;;;3.65;;
74892;SDS011;63446;56.272;43.922;2022-12-15T01:40:52;10.45;;;3.42;;
74892;SDS011;63446;56.272;43.922;2022-12-15T01:43:24;11.63;;;3.35;;
74892;SDS011;63446;56.272;43.922;2022-12-15T01:46:09;11.40;;;3.37;;
74892;SDS011;63446;56.272;43.922;2022-12-15T01:53:47;9.85;;;3.50;;
74892;SDS011;63446;56.272;43.922;2022-12-15T01:56:19;10.25;;;2.92;;
74892;SDS011;63446;56.272;43.922;2022-12-15T01:58:47;9.37;;;3.40;;
74892;SDS011;63446;56.272;43.922;2022-12-15T02:01:15;9.10;;;3.53;;
74892;SDS011;63446;56.272;43.922;2022-12-15T02:03:41;9.18;;;2.88;;
74892;SDS011;63446;56.272;43.922;2022-12-15T02:06:08;8.55;;;2.88;;
74892;SDS011;63446;56.272;43.922;2022-12-15T02:08:36;8.03;;;2.67;;
74892;SDS011;63446;56.272;43.922;2022-12-15T02:16:23;8.15;;;2.72;;
74892;SDS011;63446;56.272;43.922;2022-12-15T02:19:04;9.55;;;2.97;;
74892;SDS011;63446;56.272;43.922;2022-12-15T02:30:03;9.37;;;3.40;;
74892;SDS011;63446;56.272;43.922;2022-12-15T02:32:56;7.97;;;2.92;;
74892;SDS011;63446;56.272;43.922;2022-12-15T02:35:39;11.77;;;2.97;;
74892;SDS011;63446;56.272;43.922;2022-12-15T02:38:12;12.32;;;3.00;;
74892;SDS011;63446;56.272;43.922;2022-12-15T02:40:38;11.47;;;3.90;;
74892;SDS011;63446;56.272;43.922;2022-12-15T02:43:05;10.23;;;3.20;;
74892;SDS011;63446;56.272;43.922;2022-12-15T02:48:31;9.48;;;3.05;;
74892;SDS011;63446;56.272;43.922;2022-12-15T02:59:48;9.32;;;2.95;;
74892;SDS011;63446;56.272;43.922;2022-12-15T03:02:23;8.73;;;3.15;;
74892;SDS011;63446;56.272;43.922;2022-12-15T03:04:52;10.13;;;3.50;;
74892;SDS011;63446;56.272;43.922;2022-12-15T03:07:19;9.32;;;3.05;;
74892;SDS011;63446;56.272;43.922;2022-12-15T03:09:48;14.35;;;3.70;;
74892;SDS011;63446;56.272;43.922;2022-12-15T03:12:14;9.43;;;3.28;;
74892;SDS011;63446;56.272;43.922;2022-12-15T03:14:40;10.07;;;3.25;;
74892;SDS011;63446;56.272;43.922;2022-12-15T03:17:05;9.30;;;3.17;;
74892;SDS011;63446;56.272;43.922;2022-12-15T03:19:32;9.25;;;3.50;;
74892;SDS011;63446;56.272;43.922;2022-12-15T03:21:58;8.65;;;3.22;;
74892;SDS011;63446;56.272;43.922;2022-12-15T03:24:24;9.33;;;3.00;;
74892;SDS011;63446;56.272;43.922;2022-12-15T03:26:50;7.93;;;3.10;;
74892;SDS011;63446;56.272;43.922;2022-12-15T03:29:16;9.05;;;3.20;;
74892;SDS011;63446;56.272;43.922;2022-12-15T03:31:42;8.43;;;3.03;;
74892;SDS011;63446;56.272;43.922;2022-12-15T03:34:10;11.83;;;3.90;;
74892;SDS011;63446;56.272;43.922;2022-12-15T03:36:36;9.93;;;3.25;;
74892;SDS011;63446;56.272;43.922;2022-12-15T03:39:03;8.85;;;3.67;;
74892;SDS011;63446;56.272;43.922;2022-12-15T03:41:29;8.32;;;3.40;;
74892;SDS011;63446;56.272;43.922;2022-12-15T03:43:55;9.35;;;3.45;;
74892;SDS011;63446;56.272;43.922;2022-12-15T03:46:20;12.47;;;3.63;;
74892;SDS011;63446;56.272;43.922;2022-12-15T03:48:47;9.20;;;3.70;;
74892;SDS011;63446;56.272;43.922;2022-12-15T03:51:13;9.18;;;3.58;;
74892;SDS011;63446;56.272;43.922;2022-12-15T03:53:40;9.43;;;3.40;;
74892;SDS011;63446;56.272;43.922;2022-12-15T03:56:05;11.55;;;3.78;;
74892;SDS011;63446;56.272;43.922;2022-12-15T03:58:32;11.63;;;3.97;;
74892;SDS011;63446;56.272;43.922;2022-12-15T04:00:57;10.53;;;3.80;;
74892;SDS011;63446;56.272;43.922;2022-12-15T04:03:23;10.48;;;4.10;;
74892;SDS011;63446;56.272;43.922;2022-12-15T04:05:49;13.80;;;4.82;;
74892;SDS011;63446;56.272;43.922;2022-12-15T04:08:15;10.15;;;4.13;;
74892;SDS011;63446;56.272;43.922;2022-12-15T04:10:41;11.67;;;4.33;;
74892;SDS011;63446;56.272;43.922;2022-12-15T04:13:09;13.40;;;4.75;;
74892;SDS011;63446;56.272;43.922;2022-12-15T04:15:37;12.82;;;4.90;;
74892;SDS011;63446;56.272;43.922;2022-12-15T04:18:05;13.43;;;5.78;;
74892;SDS011;63446;56.272;43.922;2022-12-15T04:20:34;17.10;;;5.87;;
74892;SDS011;63446;56.272;43.922;2022-12-15T04:23:00;14.88;;;4.97;;
74892;SDS011;63446;56.272;43.922;2022-12-15T04:25:26;12.63;;;5.00;;
74892;SDS011;63446;56.272;43.922;2022-12-15T04:28:11;13.43;;;5.60;;
74892;SDS011;63446;56.272;43.922;2022-12-15T04:30:57;18.20;;;5.73;;
74892;SDS011;63446;56.272;43.922;2022-12-15T04:33:47;14.23;;;4.75;;
74892;SDS011;63446;56.272;43.922;2022-12-15T04:36:34;25.88;;;6.35;;
74892;SDS011;63446;56.272;43.922;2022-12-15T04:39:21;20.15;;;6.18;;
74892;SDS011;63446;56.272;43.922;2022-12-15T04:42:06;14.48;;;4.65;;
74892;SDS011;63446;56.272;43.922;2022-12-15T04:44:50;13.40;;;4.50;;
74892;SDS011;63446;56.272;43.922;2022-12-15T04:47:39;12.30;;;4.43;;
74892;SDS011;63446;56.272;43.922;2022-12-15T04:50:24;14.05;;;4.97;;
74892;SDS011;63446;56.272;43.922;2022-12-15T04:53:13;14.23;;;4.78;;
74892;SDS011;63446;56.272;43.922;2022-12-15T04:55:59;12.95;;;4.22;;
74892;SDS011;63446;56.272;43.922;2022-12-15T04:58:44;11.40;;;4.63;;
74892;SDS011;63446;56.272;43.922;2022-12-15T05:01:30;12.02;;;4.18;;
74892;SDS011;63446;56.272;43.922;2022-12-15T05:04:15;13.48;;;4.13;;
74892;SDS011;63446;56.272;43.922;2022-12-15T05:06:59;10.43;;;4.47;;
74892;SDS011;63446;56.272;43.922;2022-12-15T05:09:44;12.52;;;4.55;;
74892;SDS011;63446;56.272;43.922;2022-12-15T05:12:29;13.13;;;4.40;;
74892;SDS011;63446;56.272;43.922;2022-12-15T05:15:13;10.30;;;4.18;;
74892;SDS011;63446;56.272;43.922;2022-12-15T05:17:58;11.93;;;3.97;;
74892;SDS011;63446;56.272;43.922;2022-12-15T05:20:43;10.40;;;3.70;;
74892;SDS011;63446;56.272;43.922;2022-12-15T05:23:28;10.23;;;3.97;;
74892;SDS011;63446;56.272;43.922;2022-12-15T05:26:14;11.97;;;4.20;;
74892;SDS011;63446;56.272;43.922;2022-12-15T05:28:59;10.98;;;4.20;;
74892;SDS011;63446;56.272;43.922;2022-12-15T05:31:43;17.88;;;4.57;;
74892;SDS011;63446;56.272;43.922;2022-12-15T05:34:25;12.98;;;4.70;;
74892;SDS011;63446;56.272;43.922;2022-12-15T05:36:56;15.95;;;5.25;;
74892;SDS011;63446;56.272;43.922;2022-12-15T05:39:24;13.73;;;5.53;;
74892;SDS011;63446;56.272;43.922;2022-12-15T05:41:51;11.18;;;4.40;;
74892;SDS011;63446;56.272;43.922;2022-12-15T05:44:18;13.30;;;5.18;;
74892;SDS011;63446;56.272;43.922;2022-12-15T05:46:45;14.95;;;5.25;;
74892;SDS011;63446;56.272;43.922;2022-12-15T05:49:12;16.23;;;5.82;;
74892;SDS011;63446;56.272;43.922;2022-12-15T05:51:39;16.53;;;5.87;;
74892;SDS011;63446;56.272;43.922;2022-12-15T05:54:07;18.83;;;6.22;;
74892;SDS011;63446;56.272;43.922;2022-12-15T05:56:34;14.77;;;5.80;;
74892;SDS011;63446;56.272;43.922;2022-12-15T05:59:00;17.13;;;5.65;;
74892;SDS011;63446;56.272;43.922;2022-12-15T06:01:27;14.30;;;5.60;;
74892;SDS011;63446;56.272;43.922;2022-12-15T06:03:55;14.63;;;5.47;;
74892;SDS011;63446;56.272;43.922;2022-12-15T06:06:21;14.45;;;5.47;;
74892;SDS011;63446;56.272;43.922;2022-12-15T06:08:47;16.67;;;5.32;;
74892;SDS011;63446;56.272;43.922;2022-12-15T06:11:14;16.73;;;5.35;;
74892;SDS011;63446;56.272;43.922;2022-12-15T06:13:42;16.80;;;5.30;;
74892;SDS011;63446;56.272;43.922;2022-12-15T06:16:09;11.88;;;4.45;;
74892;SDS011;63446;56.272;43.922;2022-12-15T06:18:38;13.57;;;4.72;;
74892;SDS011;63446;56.272;43.922;2022-12-15T06:21:07;12.27;;;4.68;;
74892;SDS011;63446;56.272;43.922;2022-12-15T06:23:35;12.80;;;4.97;;
74892;SDS011;63446;56.272;43.922;2022-12-15T06:26:14;12.77;;;5.25;;
74892;SDS011;63446;56.272;43.922;2022-12-15T06:28:44;16.88;;;5.40;;
74892;SDS011;63446;56.272;43.922;2022-12-15T06:31:11;13.43;;;5.72;;
74892;SDS011;63446;56.272;43.922;2022-12-15T06:33:37;17.45;;;5.88;;
74892;SDS011;63446;56.272;43.922;2022-12-15T06:36:05;17.43;;;5.53;;
74892;SDS011;63446;56.272;43.922;2022-12-15T06:38:34;14.50;;;5.20;;
74892;SDS011;63446;56.272;43.922;2022-12-15T06:41:00;22.10;;;6.38;;
74892;SDS011;63446;56.272;43.922;2022-12-15T06:43:28;14.25;;;4.35;;
74892;SDS011;63446;56.272;43.922;2022-12-15T06:45:55;12.25;;;4.30;;
74892;SDS011;63446;56.272;43.922;2022-12-15T06:48:21;12.93;;;4.07;;
74892;SDS011;63446;56.272;43.922;2022-12-15T06:50:49;14.68;;;4.35;;
74892;SDS011;63446;56.272;43.922;2022-12-15T06:53:16;13.80;;;5.13;;
74892;SDS011;63446;56.272;43.922;2022-12-15T06:55:44;11.32;;;4.28;;
74892;SDS011;63446;56.272;43.922;2022-12-15T06:58:12;12.80;;;4.93;;
74892;SDS011;63446;56.272;43.922;2022-12-15T07:00:39;15.50;;;4.80;;
74892;SDS011;63446;56.272;43.922;2022-12-15T07:03:08;15.27;;;5.97;;
74892;SDS011;63446;56.272;43.922;2022-12-15T07:05:37;14.40;;;5.80;;
74892;SDS011;63446;56.272;43.922;2022-12-15T07:08:03;21.77;;;7.20;;
74892;SDS011;63446;56.272;43.922;2022-12-15T07:10:30;20.35;;;6.80;;
74892;SDS011;63446;56.272;43.922;2022-12-15T07:12:56;20.20;;;6.43;;
74892;SDS011;63446;56.272;43.922;2022-12-15T07:15:23;17.80;;;7.15;;
74892;SDS011;63446;56.272;43.922;2022-12-15T07:17:50;15.57;;;5.90;;
74892;SDS011;63446;56.272;43.922;2022-12-15T07:20:19;13.32;;;4.78;;
74892;SDS011;63446;56.272;43.922;2022-12-15T07:22:50;14.55;;;5.78;;
74892;SDS011;63446;56.272;43.922;2022-12-15T07:25:16;16.40;;;5.20;;
74892;SDS011;63446;56.272;43.922;2022-12-15T07:27:43;14.25;;;5.90;;
74892;SDS011;63446;56.272;43.922;2022-12-15T07:30:11;14.80;;;5.03;;
74892;SDS011;63446;56.272;43.922;2022-12-15T07:32:37;16.33;;;5.50;;
74892;SDS011;63446;56.272;43.922;2022-12-15T07:35:03;16.55;;;4.82;;
74892;SDS011;63446;56.272;43.922;2022-12-15T07:37:30;18.50;;;7.20;;
74892;SDS011;63446;56.272;43.922;2022-12-15T07:39:56;12.98;;;5.20;;
74892;SDS011;63446;56.272;43.922;2022-12-15T07:42:22;13.80;;;5.55;;
74892;SDS011;63446;56.272;43.922;2022-12-15T07:44:48;15.80;;;5.77;;
74892;SDS011;63446;56.272;43.922;2022-12-15T07:47:14;14.75;;;5.35;;
74892;SDS011;63446;56.272;43.922;2022-12-15T07:49:40;15.00;;;5.47;;
74892;SDS011;63446;56.272;43.922;2022-12-15T07:52:07;14.68;;;5.20;;
74892;SDS011;63446;56.272;43.922;2022-12-15T07:54:33;16.65;;;5.78;;
74892;SDS011;63446;56.272;43.922;2022-12-15T07:56:59;16.42;;;5.72;;
74892;SDS011;63446;56.272;43.922;2022-12-15T07:59:27;13.68;;;5.68;;
74892;SDS011;63446;56.272;43.922;2022-12-15T08:01:53;17.07;;;5.70;;
74892;SDS011;63446;56.272;43.922;2022-12-15T08:04:19;14.23;;;5.40;;
74892;SDS011;63446;56.272;43.922;2022-12-15T08:06:47;15.93;;;5.70;;
74892;SDS011;63446;56.272;43.922;2022-12-15T08:09:13;14.15;;;5.38;;
74892;SDS011;63446;56.272;43.922;2022-12-15T08:11:38;17.85;;;6.28;;
74892;SDS011;63446;56.272;43.922;2022-12-15T08:14:04;15.25;;;5.78;;
74892;SDS011;63446;56.272;43.922;2022-12-15T08:16:30;13.52;;;4.93;;
74892;SDS011;63446;56.272;43.922;2022-12-15T08:18:56;13.60;;;5.27;;
74892;SDS011;63446;56.272;43.922;2022-12-15T08:21:23;12.77;;;4.93;;
74892;SDS011;63446;56.272;43.922;2022-12-15T08:23:49;14.65;;;4.80;;
74892;SDS011;63446;56.272;43.922;2022-12-15T08:26:16;14.93;;;5.13;;
74892;SDS011;63446;56.272;43.922;2022-12-15T08:28:43;16.77;;;5.70;;
74892;SDS011;63446;56.272;43.922;2022-12-15T08:31:15;17.98;;;6.13;;
74892;SDS011;63446;56.272;43.922;2022-12-15T08:33:44;16.23;;;5.60;;
74892;SDS011;63446;56.272;43.922;2022-12-15T08:36:13;16.27;;;5.43;;
74892;SDS011;63446;56.272;43.922;2022-12-15T08:38:40;15.43;;;5.10;;
74892;SDS011;63446;56.272;43.922;2022-12-15T08:41:08;10.73;;;4.27;;
74892;SDS011;63446;56.272;43.922;2022-12-15T08:43:44;13.95;;;4.88;;
74892;SDS011;63446;56.272;43.922;2022-12-15T08:46:11;15.43;;;4.55;;
74892;SDS011;63446;56.272;43.922;2022-12-15T08:48:37;19.00;;;6.18;;
74892;SDS011;63446;56.272;43.922;2022-12-15T08:51:03;21.03;;;7.03;;
74892;SDS011;63446;56.272;43.922;2022-12-15T08:53:29;17.73;;;6.55;;
74892;SDS011;63446;56.272;43.922;2022-12-15T08:55:55;15.65;;;6.10;;
74892;SDS011;63446;56.272;43.922;2022-12-15T08:58:26;18.50;;;6.72;;
74892;SDS011;63446;56.272;43.922;2022-12-15T09:00:53;15.70;;;6.18;;
74892;SDS011;63446;56.272;43.922;2022-12-15T09:03:24;15.60;;;5.53;;
74892;SDS011;63446;56.272;43.922;2022-12-15T09:05:51;20.00;;;6.30;;
74892;SDS011;63446;56.272;43.922;2022-12-15T09:08:17;18.02;;;6.35;;
74892;SDS011;63446;56.272;43.922;2022-12-15T09:10:43;16.67;;;6.18;;
74892;SDS011;63446;56.272;43.922;2022-12-15T09:13:08;22.23;;;6.43;;
74892;SDS011;63446;56.272;43.922;2022-12-15T09:15:34;18.02;;;6.35;;
74892;SDS011;63446;56.272;43.922;2022-12-15T09:18:00;16.90;;;6.10;;
74892;SDS011;63446;56.272;43.922;2022-12-15T09:20:26;20.63;;;6.20;;
74892;SDS011;63446;56.272;43.922;2022-12-15T09:22:52;18.90;;;6.33;;
74892;SDS011;63446;56.272;43.922;2022-12-15T09:25:18;15.40;;;5.65;;
74892;SDS011;63446;56.272;43.922;2022-12-15T09:27:45;15.07;;;5.25;;
74892;SDS011;63446;56.272;43.922;2022-12-15T09:30:10;16.80;;;5.13;;
74892;SDS011;63446;56.272;43.922;2022-12-15T09:32:36;19.43;;;5.77;;
74892;SDS011;63446;56.272;43.922;2022-12-15T09:35:02;15.65;;;5.30;;
74892;SDS011;63446;56.272;43.922;2022-12-15T09:37:29;16.63;;;5.03;;
74892;SDS011;63446;56.272;43.922;2022-12-15T09:39:55;14.20;;;5.13;;
74892;SDS011;63446;56.272;43.922;2022-12-15T09:42:23;16.15;;;5.50;;
74892;SDS011;63446;56.272;43.922;2022-12-15T09:44:54;13.77;;;5.10;;
74892;SDS011;63446;56.272;43.922;2022-12-15T09:47:48;15.20;;;4.82;;
74892;SDS011;63446;56.272;43.922;2022-12-15T09:50:15;12.73;;;4.82;;
74892;SDS011;63446;56.272;43.922;2022-12-15T09:52:50;14.03;;;5.20;;
74892;SDS011;63446;56.272;43.922;2022-12-15T09:55:24;14.90;;;4.90;;
74892;SDS011;63446;56.272;43.922;2022-12-15T09:58:04;15.35;;;4.93;;
74892;SDS011;63446;56.272;43.922;2022-12-15T10:00:40;16.20;;;4.90;;
74892;SDS011;63446;56.272;43.922;2022-12-15T10:03:13;14.27;;;4.80;;
74892;SDS011;63446;56.272;43.922;2022-12-15T10:06:08;15.20;;;4.87;;
74892;SDS011;63446;56.272;43.922;2022-12-15T10:09:15;13.73;;;5.22;;
74892;SDS011;63446;56.272;43.922;2022-12-15T10:11:51;14.20;;;4.50;;
74892;SDS011;63446;56.272;43.922;2022-12-15T10:20:22;12.37;;;4.40;;
74892;SDS011;63446;56.272;43.922;2022-12-15T10:22:51;20.30;;;6.00;;
74892;SDS011;63446;56.272;43.922;2022-12-15T10:30:31;16.83;;;5.85;;
74892;SDS011;63446;56.272;43.922;2022-12-15T10:35:32;19.58;;;5.78;;
74892;SDS011;63446;56.272;43.922;2022-12-15T10:38:02;20.52;;;6.60;;
74892;SDS011;63446;56.272;43.922;2022-12-15T10:40:48;19.38;;;6.18;;
74892;SDS011;63446;56.272;43.922;2022-12-15T10:43:27;18.15;;;6.15;;
74892;SDS011;63446;56.272;43.922;2022-12-15T10:46:02;21.33;;;6.23;;
74892;SDS011;63446;56.272;43.922;2022-12-15T10:48:31;18.15;;;5.88;;
74892;SDS011;63446;56.272;43.922;2022-12-15T10:56:19;21.30;;;7.00;;
74892;SDS011;63446;56.272;43.922;2022-12-15T10:58:52;17.87;;;5.63;;
74892;SDS011;63446;56.272;43.922;2022-12-15T11:01:28;21.73;;;6.03;;
74892;SDS011;63446;56.272;43.922;2022-12-15T11:03:55;20.27;;;6.78;;
74892;SDS011;63446;56.272;43.922;2022-12-15T11:06:27;14.00;;;5.80;;
74892;SDS011;63446;56.272;43.922;2022-12-15T11:12:15;25.10;;;9.93;;
74892;SDS011;63446;56.272;43.922;2022-12-15T11:15:27;18.10;;;6.82;;
74892;SDS011;63446;56.272;43.922;2022-12-15T11:18:35;21.02;;;6.38;;
74892;SDS011;63446;56.272;43.922;2022-12-15T11:20:50;20.05;;;6.40;;
74892;SDS011;63446;56.272;43.922;2022-12-15T11:23:29;18.50;;;5.93;;
74892;SDS011;63446;56.272;43.922;2022-12-15T11:26:21;16.95;;;6.70;;
74892;SDS011;63446;56.272;43.922;2022-12-15T11:29:41;18.63;;;5.57;;
74892;SDS011;63446;56.272;43.922;2022-12-15T11:31:48;19.17;;;6.00;;
74892;SDS011;63446;56.272;43.922;2022-12-15T11:34:16;16.92;;;6.03;;
74892;SDS011;63446;56.272;43.922;2022-12-15T11:56:05;15.77;;;5.28;;
74892;SDS011;63446;56.272;43.922;2022-12-15T12:01:39;18.95;;;4.85;;
74892;SDS011;63446;56.272;43.922;2022-12-15T12:07:38;13.60;;;5.22;;
74892;SDS011;63446;56.272;43.922;2022-12-15T12:15:51;17.13;;;5.55;;
74892;SDS011;63446;56.272;43.922;2022-12-15T12:18:28;21.07;;;5.90;;
74892;SDS011;63446;56.272;43.922;2022-12-15T12:21:16;15.68;;;5.43;;
74892;SDS011;63446;56.272;43.922;2022-12-15T12:23:49;16.75;;;5.47;;
74892;SDS011;63446;56.272;43.922;2022-12-15T12:26:22;16.27;;;5.53;;
74892;SDS011;63446;56.272;43.922;2022-12-15T12:29:01;21.73;;;6.40;;
74892;SDS011;63446;56.272;43.922;2022-12-15T12:31:56;18.77;;;5.13;;
74892;SDS011;63446;56.272;43.922;2022-12-15T12:37:41;24.73;;;6.43;;
74892;SDS011;63446;56.272;43.922;2022-12-15T12:40:17;22.33;;;7.10;;
74892;SDS011;63446;56.272;43.922;2022-12-15T12:42:53;21.25;;;7.05;;
74892;SDS011;63446;56.272;43.922;2022-12-15T12:46:06;25.00;;;7.07;;
74892;SDS011;63446;56.272;43.922;2022-12-15T12:48:17;20.65;;;5.70;;
74892;SDS011;63446;56.272;43.922;2022-12-15T12:50:52;19.10;;;5.25;;
74892;SDS011;63446;56.272;43.922;2022-12-15T12:53:37;16.27;;;5.00;;
74892;SDS011;63446;56.272;43.922;2022-12-15T12:56:02;14.60;;;5.07;;
74892;SDS011;63446;56.272;43.922;2022-12-15T12:58:29;13.95;;;4.95;;
74892;SDS011;63446;56.272;43.922;2022-12-15T13:01:03;15.65;;;4.97;;
74892;SDS011;63446;56.272;43.922;2022-12-15T13:03:29;14.30;;;4.78;;
74892;SDS011;63446;56.272;43.922;2022-12-15T13:05:55;15.03;;;5.00;;
74892;SDS011;63446;56.272;43.922;2022-12-15T13:08:28;20.90;;;6.30;;
74892;SDS011;63446;56.272;43.922;2022-12-15T13:14:19;13.00;;;4.97;;
74892;SDS011;63446;56.272;43.922;2022-12-15T13:16:55;14.03;;;4.27;;
74892;SDS011;63446;56.272;43.922;2022-12-15T13:22:36;12.50;;;4.10;;
74892;SDS011;63446;56.272;43.922;2022-12-15T13:28:16;18.15;;;5.68;;
74892;SDS011;63446;56.272;43.922;2022-12-15T13:31:44;15.97;;;4.80;;
74892;SDS011;63446;56.272;43.922;2022-12-15T13:39:49;14.88;;;4.55;;
74892;SDS011;63446;56.272;43.922;2022-12-15T13:46:55;12.15;;;4.05;;
74892;SDS011;63446;56.272;43.922;2022-12-15T13:49:36;18.88;;;5.47;;
74892;SDS011;63446;56.272;43.922;2022-12-15T13:52:12;20.40;;;5.05;;
74892;SDS011;63446;56.272;43.922;2022-12-15T13:54:55;11.32;;;3.90;;
74892;SDS011;63446;56.272;43.922;2022-12-15T13:57:24;18.90;;;4.77;;
74892;SDS011;63446;56.272;43.922;2022-12-15T14:02:37;16.02;;;5.07;;
74892;SDS011;63446;56.272;43.922;2022-12-15T14:07:45;11.18;;;4.05;;
74892;SDS011;63446;56.272;43.922;2022-12-15T14:13:09;10.23;;;3.63;;
74892;SDS011;63446;56.272;43.922;2022-12-15T14:15:40;11.55;;;4.05;;
74892;SDS011;63446;56.272;43.922;2022-12-15T14:18:22;16.10;;;5.37;;
74892;SDS011;63446;56.272;43.922;2022-12-15T14:20:48;17.25;;;4.93;;
74892;SDS011;63446;56.272;43.922;2022-12-15T14:23:21;13.60;;;4.85;;
74892;SDS011;63446;56.272;43.922;2022-12-15T14:25:54;16.70;;;6.05;;
74892;SDS011;63446;56.272;43.922;2022-12-15T14:28:26;18.03;;;5.73;;
74892;SDS011;63446;56.272;43.922;2022-12-15T14:30:59;17.65;;;5.35;;
74892;SDS011;63446;56.272;43.922;2022-12-15T14:33:30;14.15;;;4.82;;
74892;SDS011;63446;56.272;43.922;2022-12-15T14:36:00;15.98;;;5.45;;
74892;SDS011;63446;56.272;43.922;2022-12-15T14:38:39;12.05;;;3.90;;
74892;SDS011;63446;56.272;43.922;2022-12-15T14:41:18;13.53;;;4.50;;
74892;SDS011;63446;56.272;43.922;2022-12-15T14:43:46;14.20;;;4.65;;
74892;SDS011;63446;56.272;43.922;2022-12-15T14:46:16;14.90;;;5.15;;
74892;SDS011;63446;56.272;43.922;2022-12-15T14:48:52;13.23;;;4.72;;
74892;SDS011;63446;56.272;43.922;2022-12-15T14:51:23;18.73;;;6.07;;
74892;SDS011;63446;56.272;43.922;2022-12-15T14:53:52;19.07;;;5.67;;
74892;SDS011;63446;56.272;43.922;2022-12-15T14:58:45;18.23;;;6.50;;
74892;SDS011;63446;56.272;43.922;2022-12-15T15:01:27;20.97;;;7.33;;
74892;SDS011;63446;56.272;43.922;2022-12-15T15:04:04;24.08;;;7.30;;
74892;SDS011;63446;56.272;43.922;2022-12-15T15:06:51;22.60;;;7.95;;
74892;SDS011;63446;56.272;43.922;2022-12-15T15:09:21;17.95;;;5.72;;
74892;SDS011;63446;56.272;43.922;2022-12-15T15:11:56;18.80;;;5.90;;
74892;SDS011;63446;56.272;43.922;2022-12-15T15:14:31;14.87;;;5.27;;
74892;SDS011;63446;56.272;43.922;2022-12-15T15:17:05;18.63;;;5.97;;
74892;SDS011;63446;56.272;43.922;2022-12-15T15:19:45;13.07;;;5.07;;
74892;SDS011;63446;56.272;43.922;2022-12-15T15:22:43;14.38;;;5.20;;
74892;SDS011;63446;56.272;43.922;2022-12-15T15:28:02;14.70;;;5.17;;
74892;SDS011;63446;56.272;43.922;2022-12-15T15:30:40;18.00;;;5.53;;
74892;SDS011;63446;56.272;43.922;2022-12-15T15:33:18;17.77;;;5.72;;
74892;SDS011;63446;56.272;43.922;2022-12-15T15:35:51;17.40;;;5.03;;
74892;SDS011;63446;56.272;43.922;2022-12-15T15:38:31;16.92;;;5.43;;
74892;SDS011;63446;56.272;43.922;2022-12-15T15:43:38;23.30;;;6.28;;
74892;SDS011;63446;56.272;43.922;2022-12-15T15:46:05;17.98;;;6.20;;
74892;SDS011;63446;56.272;43.922;2022-12-15T15:48:37;21.67;;;5.88;;
74892;SDS011;63446;56.272;43.922;2022-12-15T15:51:07;15.80;;;5.43;;
74892;SDS011;63446;56.272;43.922;2022-12-15T15:53:33;15.27;;;5.33;;
74892;SDS011;63446;56.272;43.922;2022-12-15T15:56:01;16.40;;;5.05;;
74892;SDS011;63446;56.272;43.922;2022-12-15T15:58:32;17.67;;;5.70;;
74892;SDS011;63446;56.272;43.922;2022-12-15T16:00:58;17.10;;;5.32;;
74892;SDS011;63446;56.272;43.922;2022-12-15T16:03:24;16.55;;;5.68;;
74892;SDS011;63446;56.272;43.922;2022-12-15T16:05:50;19.17;;;5.50;;
74892;SDS011;63446;56.272;43.922;2022-12-15T16:08:26;18.35;;;6.00;;
74892;SDS011;63446;56.272;43.922;2022-12-15T16:10:55;15.93;;;5.70;;
74892;SDS011;63446;56.272;43.922;2022-12-15T16:13:23;18.50;;;6.13;;
74892;SDS011;63446;56.272;43.922;2022-12-15T16:15:49;18.30;;;6.10;;
74892;SDS011;63446;56.272;43.922;2022-12-15T16:18:15;18.13;;;5.57;;
74892;SDS011;63446;56.272;43.922;2022-12-15T16:20:42;17.65;;;6.05;;
74892;SDS011;63446;56.272;43.922;2022-12-15T16:23:12;17.73;;;4.90;;
74892;SDS011;63446;56.272;43.922;2022-12-15T16:25:56;17.98;;;5.45;;
74892;SDS011;63446;56.272;43.922;2022-12-15T16:28:24;15.67;;;5.00;;
74892;SDS011;63446;56.272;43.922;2022-12-15T16:30:52;16.33;;;5.45;;
74892;SDS011;63446;56.272;43.922;2022-12-15T16:33:19;18.55;;;6.22;;
74892;SDS011;63446;56.272;43.922;2022-12-15T16:35:45;17.33;;;6.07;;
74892;SDS011;63446;56.272;43.922;2022-12-15T16:38:31;15.95;;;5.32;;
74892;SDS011;63446;56.272;43.922;2022-12-15T16:40:57;17.47;;;5.83;;
74892;SDS011;63446;56.272;43.922;2022-12-15T16:43:32;15.43;;;6.10;;
74892;SDS011;63446;56.272;43.922;2022-12-15T16:45:58;19.80;;;6.80;;
74892;SDS011;63446;56.272;43.922;2022-12-15T16:48:25;21.70;;;6.53;;
74892;SDS011;63446;56.272;43.922;2022-12-15T16:50:52;15.68;;;5.10;;
74892;SDS011;63446;56.272;43.922;2022-12-15T16:53:21;18.33;;;6.30;;
74892;SDS011;63446;56.272;43.922;2022-12-15T16:55:54;19.17;;;5.93;;
74892;SDS011;63446;56.272;43.922;2022-12-15T16:58:23;15.73;;;4.95;;